sensor_id;sensor_type;location;lat;lon;timestamp;P1;durP1;ratioP1;P2;durP2;ratioP2
84175;SDS011;74306;40.114;18.304;2023-12-20T00:02:07;76.88;;;52.80;;
84175;SDS011;74306;40.114;18.304;2023-12-20T00:04:36;73.70;;;51.83;;
84175;SDS011;74306;40.114;18.304;2023-12-20T00:07:05;71.88;;;51.90;;
84175;SDS011;74306;40.114;18.304;2023-12-20T00:09:36;74.15;;;51.10;;
84175;SDS011;74306;40.114;18.304;2023-12-20T00:12:06;74.90;;;52.38;;
84175;SDS011;74306;40.114;18.304;2023-12-20T00:14:35;71.30;;;50.28;;
84175;SDS011;74306;40.114;18.304;2023-12-20T00:17:05;83.40;;;54.53;;
84175;SDS011;74306;40.114;18.304;2023-12-20T00:19:35;80.57;;;52.58;;
84175;SDS011;74306;40.114;18.304;2023-12-20T00:22:04;79.88;;;52.10;;
84175;SDS011;74306;40.114;18.304;2023-12-20T00:24:33;79.35;;;51.58;;
84175;SDS011;74306;40.114;18.304;2023-12-20T00:27:04;76.80;;;50.80;;
84175;SDS011;74306;40.114;18.304;2023-12-20T00:29:34;75.65;;;46.88;;
84175;SDS011;74306;40.114;18.304;2023-12-20T00:32:03;72.07;;;46.17;;
84175;SDS011;74306;40.114;18.304;2023-12-20T00:34:33;75.40;;;49.00;;
84175;SDS011;74306;40.114;18.304;2023-12-20T00:37:02;69.43;;;46.25;;
84175;SDS011;74306;40.114;18.304;2023-12-20T00:39:32;71.57;;;46.22;;
84175;SDS011;74306;40.114;18.304;2023-12-20T00:42:02;74.22;;;45.70;;
84175;SDS011;74306;40.114;18.304;2023-12-20T00:44:33;71.72;;;42.88;;
84175;SDS011;74306;40.114;18.304;2023-12-20T00:47:02;61.88;;;39.42;;
84175;SDS011;74306;40.114;18.304;2023-12-20T00:49:32;55.10;;;33.83;;
84175;SDS011;74306;40.114;18.304;2023-12-20T00:52:01;51.90;;;33.42;;
84175;SDS011;74306;40.114;18.304;2023-12-20T00:54:30;51.35;;;32.35;;
84175;SDS011;74306;40.114;18.304;2023-12-20T00:57:00;55.22;;;33.38;;
84175;SDS011;74306;40.114;18.304;2023-12-20T00:59:29;53.88;;;32.70;;
84175;SDS011;74306;40.114;18.304;2023-12-20T01:02:00;45.42;;;27.63;;
84175;SDS011;74306;40.114;18.304;2023-12-20T01:04:29;49.63;;;30.92;;
84175;SDS011;74306;40.114;18.304;2023-12-20T01:06:59;53.08;;;32.22;;
84175;SDS011;74306;40.114;18.304;2023-12-20T01:09:28;65.78;;;37.45;;
84175;SDS011;74306;40.114;18.304;2023-12-20T01:11:58;76.60;;;41.25;;
84175;SDS011;74306;40.114;18.304;2023-12-20T01:14:27;65.82;;;41.10;;
84175;SDS011;74306;40.114;18.304;2023-12-20T01:16:56;73.75;;;43.50;;
84175;SDS011;74306;40.114;18.304;2023-12-20T01:19:27;77.38;;;45.15;;
84175;SDS011;74306;40.114;18.304;2023-12-20T01:21:58;67.13;;;42.05;;
84175;SDS011;74306;40.114;18.304;2023-12-20T01:24:27;76.30;;;43.70;;
84175;SDS011;74306;40.114;18.304;2023-12-20T01:26:58;69.03;;;41.50;;
84175;SDS011;74306;40.114;18.304;2023-12-20T01:29:27;67.15;;;40.65;;
84175;SDS011;74306;40.114;18.304;2023-12-20T01:31:56;67.90;;;40.40;;
84175;SDS011;74306;40.114;18.304;2023-12-20T01:34:27;67.78;;;40.00;;
84175;SDS011;74306;40.114;18.304;2023-12-20T01:36:56;62.45;;;37.83;;
84175;SDS011;74306;40.114;18.304;2023-12-20T01:39:26;60.47;;;36.60;;
84175;SDS011;74306;40.114;18.304;2023-12-20T01:41:56;58.25;;;35.20;;
84175;SDS011;74306;40.114;18.304;2023-12-20T01:44:25;52.92;;;32.85;;
84175;SDS011;74306;40.114;18.304;2023-12-20T01:46:54;58.92;;;34.28;;
84175;SDS011;74306;40.114;18.304;2023-12-20T01:49:24;58.25;;;37.05;;
84175;SDS011;74306;40.114;18.304;2023-12-20T01:51:56;60.28;;;36.88;;
84175;SDS011;74306;40.114;18.304;2023-12-20T01:54:25;61.10;;;38.35;;
84175;SDS011;74306;40.114;18.304;2023-12-20T01:56:55;59.03;;;38.10;;
84175;SDS011;74306;40.114;18.304;2023-12-20T01:59:24;64.72;;;39.70;;
84175;SDS011;74306;40.114;18.304;2023-12-20T02:01:54;66.68;;;40.47;;
84175;SDS011;74306;40.114;18.304;2023-12-20T02:04:24;64.05;;;39.08;;
84175;SDS011;74306;40.114;18.304;2023-12-20T02:06:55;62.75;;;37.67;;
84175;SDS011;74306;40.114;18.304;2023-12-20T02:09:26;60.72;;;38.08;;
84175;SDS011;74306;40.114;18.304;2023-12-20T02:11:57;58.50;;;37.95;;
84175;SDS011;74306;40.114;18.304;2023-12-20T02:14:27;60.03;;;37.78;;
84175;SDS011;74306;40.114;18.304;2023-12-20T02:16:56;60.08;;;38.75;;
84175;SDS011;74306;40.114;18.304;2023-12-20T02:19:27;67.60;;;39.17;;
84175;SDS011;74306;40.114;18.304;2023-12-20T02:22:08;63.83;;;39.22;;
84175;SDS011;74306;40.114;18.304;2023-12-20T02:24:37;64.88;;;38.03;;
84175;SDS011;74306;40.114;18.304;2023-12-20T02:27:08;62.55;;;38.15;;
84175;SDS011;74306;40.114;18.304;2023-12-20T02:29:37;72.60;;;40.80;;
84175;SDS011;74306;40.114;18.304;2023-12-20T02:32:07;74.57;;;41.35;;
84175;SDS011;74306;40.114;18.304;2023-12-20T02:34:37;75.05;;;42.75;;
84175;SDS011;74306;40.114;18.304;2023-12-20T02:37:08;79.28;;;43.42;;
84175;SDS011;74306;40.114;18.304;2023-12-20T02:39:37;75.18;;;41.90;;
84175;SDS011;74306;40.114;18.304;2023-12-20T02:42:06;72.95;;;42.53;;
84175;SDS011;74306;40.114;18.304;2023-12-20T02:44:36;78.85;;;42.80;;
84175;SDS011;74306;40.114;18.304;2023-12-20T02:47:06;77.68;;;41.88;;
84175;SDS011;74306;40.114;18.304;2023-12-20T02:49:36;81.78;;;42.60;;
84175;SDS011;74306;40.114;18.304;2023-12-20T02:52:05;82.40;;;44.17;;
84175;SDS011;74306;40.114;18.304;2023-12-20T02:54:36;78.38;;;42.33;;
84175;SDS011;74306;40.114;18.304;2023-12-20T02:57:05;78.70;;;42.17;;
84175;SDS011;74306;40.114;18.304;2023-12-20T02:59:35;71.45;;;38.88;;
84175;SDS011;74306;40.114;18.304;2023-12-20T03:02:04;70.55;;;38.63;;
84175;SDS011;74306;40.114;18.304;2023-12-20T03:04:34;64.35;;;35.65;;
84175;SDS011;74306;40.114;18.304;2023-12-20T03:07:03;69.57;;;38.10;;
84175;SDS011;74306;40.114;18.304;2023-12-20T03:09:33;67.97;;;38.92;;
84175;SDS011;74306;40.114;18.304;2023-12-20T03:12:06;70.30;;;38.47;;
84175;SDS011;74306;40.114;18.304;2023-12-20T03:14:36;75.60;;;40.70;;
84175;SDS011;74306;40.114;18.304;2023-12-20T03:17:05;74.32;;;39.80;;
84175;SDS011;74306;40.114;18.304;2023-12-20T03:19:34;67.13;;;38.55;;
84175;SDS011;74306;40.114;18.304;2023-12-20T03:22:04;65.13;;;38.28;;
84175;SDS011;74306;40.114;18.304;2023-12-20T03:24:33;68.55;;;38.60;;
84175;SDS011;74306;40.114;18.304;2023-12-20T03:27:02;69.13;;;39.53;;
84175;SDS011;74306;40.114;18.304;2023-12-20T03:29:33;62.90;;;37.38;;
84175;SDS011;74306;40.114;18.304;2023-12-20T03:32:03;62.40;;;36.08;;
84175;SDS011;74306;40.114;18.304;2023-12-20T03:34:32;60.03;;;36.28;;
84175;SDS011;74306;40.114;18.304;2023-12-20T03:37:02;62.42;;;33.78;;
84175;SDS011;74306;40.114;18.304;2023-12-20T03:39:31;59.72;;;33.25;;
84175;SDS011;74306;40.114;18.304;2023-12-20T03:42:01;72.82;;;35.53;;
84175;SDS011;74306;40.114;18.304;2023-12-20T03:44:30;101.07;;;37.08;;
84175;SDS011;74306;40.114;18.304;2023-12-20T03:47:01;94.65;;;38.60;;
84175;SDS011;74306;40.114;18.304;2023-12-20T03:49:30;98.07;;;36.28;;
84175;SDS011;74306;40.114;18.304;2023-12-20T03:51:59;100.43;;;38.50;;
84175;SDS011;74306;40.114;18.304;2023-12-20T03:54:29;82.70;;;36.75;;
84175;SDS011;74306;40.114;18.304;2023-12-20T03:56:58;82.97;;;39.17;;
84175;SDS011;74306;40.114;18.304;2023-12-20T03:59:27;66.13;;;37.17;;
84175;SDS011;74306;40.114;18.304;2023-12-20T04:01:57;64.40;;;38.55;;
84175;SDS011;74306;40.114;18.304;2023-12-20T04:04:28;65.10;;;39.92;;
84175;SDS011;74306;40.114;18.304;2023-12-20T04:06:57;62.42;;;37.65;;
84175;SDS011;74306;40.114;18.304;2023-12-20T04:09:26;64.68;;;39.20;;
84175;SDS011;74306;40.114;18.304;2023-12-20T04:11:56;57.33;;;37.10;;
84175;SDS011;74306;40.114;18.304;2023-12-20T04:14:25;58.83;;;37.60;;
84175;SDS011;74306;40.114;18.304;2023-12-20T04:16:54;52.67;;;36.30;;
84175;SDS011;74306;40.114;18.304;2023-12-20T04:19:23;63.08;;;36.65;;
84175;SDS011;74306;40.114;18.304;2023-12-20T04:21:54;54.80;;;36.28;;
84175;SDS011;74306;40.114;18.304;2023-12-20T04:24:24;56.95;;;35.78;;
84175;SDS011;74306;40.114;18.304;2023-12-20T04:26:53;54.25;;;35.13;;
84175;SDS011;74306;40.114;18.304;2023-12-20T04:29:23;54.38;;;33.55;;
84175;SDS011;74306;40.114;18.304;2023-12-20T04:31:53;51.08;;;32.03;;
84175;SDS011;74306;40.114;18.304;2023-12-20T04:34:22;50.38;;;30.70;;
84175;SDS011;74306;40.114;18.304;2023-12-20T04:36:52;51.15;;;29.00;;
84175;SDS011;74306;40.114;18.304;2023-12-20T04:39:23;47.22;;;29.30;;
84175;SDS011;74306;40.114;18.304;2023-12-20T04:41:52;45.15;;;28.17;;
84175;SDS011;74306;40.114;18.304;2023-12-20T04:44:21;47.03;;;27.48;;
84175;SDS011;74306;40.114;18.304;2023-12-20T04:46:51;45.45;;;25.70;;
84175;SDS011;74306;40.114;18.304;2023-12-20T04:49:20;44.17;;;24.52;;
84175;SDS011;74306;40.114;18.304;2023-12-20T04:51:49;44.38;;;25.45;;
84175;SDS011;74306;40.114;18.304;2023-12-20T04:54:20;49.20;;;24.75;;
84175;SDS011;74306;40.114;18.304;2023-12-20T04:56:50;46.05;;;25.02;;
84175;SDS011;74306;40.114;18.304;2023-12-20T04:59:19;50.45;;;25.60;;
84175;SDS011;74306;40.114;18.304;2023-12-20T05:01:48;51.38;;;26.90;;
84175;SDS011;74306;40.114;18.304;2023-12-20T05:04:17;48.75;;;25.08;;
84175;SDS011;74306;40.114;18.304;2023-12-20T05:06:48;53.50;;;26.98;;
84175;SDS011;74306;40.114;18.304;2023-12-20T05:09:18;54.85;;;26.63;;
84175;SDS011;74306;40.114;18.304;2023-12-20T05:11:48;53.15;;;27.60;;
84175;SDS011;74306;40.114;18.304;2023-12-20T05:14:19;60.35;;;26.33;;
84175;SDS011;74306;40.114;18.304;2023-12-20T05:16:48;61.75;;;27.55;;
84175;SDS011;74306;40.114;18.304;2023-12-20T05:19:18;52.63;;;27.40;;
84175;SDS011;74306;40.114;18.304;2023-12-20T05:21:47;56.20;;;26.80;;
84175;SDS011;74306;40.114;18.304;2023-12-20T05:24:16;52.60;;;27.02;;
84175;SDS011;74306;40.114;18.304;2023-12-20T05:26:46;56.15;;;28.38;;
84175;SDS011;74306;40.114;18.304;2023-12-20T05:29:18;61.80;;;26.85;;
84175;SDS011;74306;40.114;18.304;2023-12-20T05:31:47;62.72;;;28.20;;
84175;SDS011;74306;40.114;18.304;2023-12-20T05:34:16;65.28;;;29.95;;
84175;SDS011;74306;40.114;18.304;2023-12-20T05:36:46;90.05;;;30.52;;
84175;SDS011;74306;40.114;18.304;2023-12-20T05:39:15;67.57;;;32.38;;
84175;SDS011;74306;40.114;18.304;2023-12-20T05:41:45;61.85;;;30.00;;
84175;SDS011;74306;40.114;18.304;2023-12-20T05:44:14;71.50;;;28.88;;
84175;SDS011;74306;40.114;18.304;2023-12-20T05:46:45;67.72;;;27.63;;
84175;SDS011;74306;40.114;18.304;2023-12-20T05:49:14;84.57;;;28.67;;
84175;SDS011;74306;40.114;18.304;2023-12-20T05:51:43;101.97;;;27.48;;
84175;SDS011;74306;40.114;18.304;2023-12-20T05:54:13;107.53;;;31.35;;
84175;SDS011;74306;40.114;18.304;2023-12-20T05:56:42;94.80;;;32.40;;
84175;SDS011;74306;40.114;18.304;2023-12-20T05:59:11;107.60;;;31.88;;
84175;SDS011;74306;40.114;18.304;2023-12-20T06:01:41;174.88;;;33.60;;
84175;SDS011;74306;40.114;18.304;2023-12-20T06:04:11;116.60;;;33.03;;
84175;SDS011;74306;40.114;18.304;2023-12-20T06:06:42;187.55;;;32.13;;
84175;SDS011;74306;40.114;18.304;2023-12-20T06:09:11;153.73;;;30.88;;
84175;SDS011;74306;40.114;18.304;2023-12-20T06:11:41;141.50;;;30.40;;
84175;SDS011;74306;40.114;18.304;2023-12-20T06:14:10;178.70;;;35.92;;
84175;SDS011;74306;40.114;18.304;2023-12-20T06:16:40;158.73;;;35.78;;
84175;SDS011;74306;40.114;18.304;2023-12-20T06:19:09;178.50;;;33.33;;
84175;SDS011;74306;40.114;18.304;2023-12-20T06:21:40;151.93;;;36.83;;
84175;SDS011;74306;40.114;18.304;2023-12-20T06:24:10;168.75;;;37.38;;
84175;SDS011;74306;40.114;18.304;2023-12-20T06:26:40;165.57;;;37.35;;
84175;SDS011;74306;40.114;18.304;2023-12-20T06:29:10;134.00;;;34.22;;
84175;SDS011;74306;40.114;18.304;2023-12-20T06:31:40;170.13;;;36.00;;
84175;SDS011;74306;40.114;18.304;2023-12-20T06:34:10;199.95;;;39.92;;
84175;SDS011;74306;40.114;18.304;2023-12-20T06:36:41;210.20;;;36.05;;
84175;SDS011;74306;40.114;18.304;2023-12-20T06:39:09;151.55;;;33.72;;
84175;SDS011;74306;40.114;18.304;2023-12-20T06:41:39;137.85;;;35.83;;
84175;SDS011;74306;40.114;18.304;2023-12-20T06:44:11;180.52;;;39.53;;
84175;SDS011;74306;40.114;18.304;2023-12-20T06:46:40;257.75;;;44.17;;
84175;SDS011;74306;40.114;18.304;2023-12-20T06:49:10;248.57;;;38.08;;
84175;SDS011;74306;40.114;18.304;2023-12-20T06:51:40;194.02;;;35.75;;
84175;SDS011;74306;40.114;18.304;2023-12-20T06:54:10;205.23;;;37.25;;
84175;SDS011;74306;40.114;18.304;2023-12-20T06:56:39;130.98;;;28.15;;
84175;SDS011;74306;40.114;18.304;2023-12-20T06:59:09;167.75;;;35.85;;
84175;SDS011;74306;40.114;18.304;2023-12-20T07:01:38;109.45;;;32.40;;
84175;SDS011;74306;40.114;18.304;2023-12-20T07:04:08;121.35;;;33.05;;
84175;SDS011;74306;40.114;18.304;2023-12-20T07:06:38;110.68;;;33.70;;
84175;SDS011;74306;40.114;18.304;2023-12-20T07:09:08;100.63;;;34.03;;
84175;SDS011;74306;40.114;18.304;2023-12-20T07:11:40;87.78;;;32.55;;
84175;SDS011;74306;40.114;18.304;2023-12-20T07:14:09;73.93;;;31.77;;
84175;SDS011;74306;40.114;18.304;2023-12-20T07:16:39;70.57;;;30.48;;
84175;SDS011;74306;40.114;18.304;2023-12-20T07:19:08;83.13;;;31.92;;
84175;SDS011;74306;40.114;18.304;2023-12-20T07:21:38;68.60;;;29.38;;
84175;SDS011;74306;40.114;18.304;2023-12-20T07:24:08;74.90;;;28.30;;
84175;SDS011;74306;40.114;18.304;2023-12-20T07:26:38;84.95;;;30.30;;
84175;SDS011;74306;40.114;18.304;2023-12-20T07:29:07;65.15;;;28.63;;
84175;SDS011;74306;40.114;18.304;2023-12-20T07:31:37;78.22;;;29.75;;
84175;SDS011;74306;40.114;18.304;2023-12-20T07:34:06;74.03;;;31.52;;
84175;SDS011;74306;40.114;18.304;2023-12-20T07:36:35;66.03;;;28.17;;
84175;SDS011;74306;40.114;18.304;2023-12-20T07:39:05;70.40;;;26.23;;
84175;SDS011;74306;40.114;18.304;2023-12-20T07:41:36;98.22;;;26.92;;
84175;SDS011;74306;40.114;18.304;2023-12-20T07:44:06;95.47;;;22.27;;
84175;SDS011;74306;40.114;18.304;2023-12-20T07:46:35;110.00;;;23.35;;
84175;SDS011;74306;40.114;18.304;2023-12-20T07:49:04;53.30;;;20.27;;
84175;SDS011;74306;40.114;18.304;2023-12-20T07:51:35;76.75;;;20.00;;
84175;SDS011;74306;40.114;18.304;2023-12-20T07:54:05;74.57;;;20.90;;
84175;SDS011;74306;40.114;18.304;2023-12-20T07:56:36;50.75;;;15.57;;
84175;SDS011;74306;40.114;18.304;2023-12-20T07:59:07;50.90;;;14.70;;
84175;SDS011;74306;40.114;18.304;2023-12-20T08:01:41;48.20;;;14.07;;
84175;SDS011;74306;40.114;18.304;2023-12-20T08:04:11;37.53;;;14.02;;
84175;SDS011;74306;40.114;18.304;2023-12-20T08:06:40;38.83;;;12.32;;
84175;SDS011;74306;40.114;18.304;2023-12-20T08:09:09;48.55;;;12.95;;
84175;SDS011;74306;40.114;18.304;2023-12-20T08:11:40;54.85;;;13.27;;
84175;SDS011;74306;40.114;18.304;2023-12-20T08:14:13;44.53;;;13.90;;
84175;SDS011;74306;40.114;18.304;2023-12-20T08:16:43;44.42;;;13.80;;
84175;SDS011;74306;40.114;18.304;2023-12-20T08:19:12;40.90;;;12.65;;
84175;SDS011;74306;40.114;18.304;2023-12-20T08:21:42;33.40;;;12.77;;
84175;SDS011;74306;40.114;18.304;2023-12-20T08:24:11;35.03;;;12.30;;
84175;SDS011;74306;40.114;18.304;2023-12-20T08:26:42;27.75;;;11.88;;
84175;SDS011;74306;40.114;18.304;2023-12-20T08:29:12;48.45;;;13.35;;
84175;SDS011;74306;40.114;18.304;2023-12-20T08:31:42;28.27;;;14.98;;
84175;SDS011;74306;40.114;18.304;2023-12-20T08:34:12;27.05;;;13.25;;
84175;SDS011;74306;40.114;18.304;2023-12-20T08:36:42;30.10;;;14.32;;
84175;SDS011;74306;40.114;18.304;2023-12-20T08:39:11;30.52;;;14.50;;
84175;SDS011;74306;40.114;18.304;2023-12-20T08:41:42;32.00;;;15.70;;
84175;SDS011;74306;40.114;18.304;2023-12-20T08:44:12;30.00;;;15.57;;
84175;SDS011;74306;40.114;18.304;2023-12-20T08:46:41;36.25;;;15.45;;
84175;SDS011;74306;40.114;18.304;2023-12-20T08:49:11;31.38;;;14.93;;
84175;SDS011;74306;40.114;18.304;2023-12-20T08:51:41;30.13;;;14.77;;
84175;SDS011;74306;40.114;18.304;2023-12-20T08:54:10;26.50;;;14.68;;
84175;SDS011;74306;40.114;18.304;2023-12-20T08:56:40;28.33;;;14.55;;
84175;SDS011;74306;40.114;18.304;2023-12-20T08:59:12;27.52;;;14.60;;
84175;SDS011;74306;40.114;18.304;2023-12-20T09:01:41;28.90;;;15.05;;
84175;SDS011;74306;40.114;18.304;2023-12-20T09:04:10;27.70;;;16.25;;
84175;SDS011;74306;40.114;18.304;2023-12-20T09:06:40;31.58;;;16.17;;
84175;SDS011;74306;40.114;18.304;2023-12-20T09:09:09;29.88;;;16.25;;
84175;SDS011;74306;40.114;18.304;2023-12-20T09:11:41;33.83;;;17.05;;
84175;SDS011;74306;40.114;18.304;2023-12-20T09:14:12;37.55;;;18.83;;
84175;SDS011;74306;40.114;18.304;2023-12-20T09:16:41;33.05;;;17.10;;
84175;SDS011;74306;40.114;18.304;2023-12-20T09:19:10;37.10;;;17.95;;
84175;SDS011;74306;40.114;18.304;2023-12-20T09:21:40;27.42;;;15.55;;
84175;SDS011;74306;40.114;18.304;2023-12-20T09:24:10;27.15;;;14.40;;
84175;SDS011;74306;40.114;18.304;2023-12-20T09:26:39;28.73;;;14.50;;
84175;SDS011;74306;40.114;18.304;2023-12-20T09:29:09;26.50;;;13.93;;
84175;SDS011;74306;40.114;18.304;2023-12-20T09:31:42;23.98;;;13.38;;
84175;SDS011;74306;40.114;18.304;2023-12-20T09:34:14;26.35;;;12.82;;
84175;SDS011;74306;40.114;18.304;2023-12-20T09:36:44;27.05;;;13.60;;
84175;SDS011;74306;40.114;18.304;2023-12-20T09:39:14;26.55;;;13.63;;
84175;SDS011;74306;40.114;18.304;2023-12-20T09:41:49;24.52;;;13.75;;
84175;SDS011;74306;40.114;18.304;2023-12-20T09:44:24;29.85;;;16.85;;
84175;SDS011;74306;40.114;18.304;2023-12-20T09:46:54;25.15;;;16.23;;
84175;SDS011;74306;40.114;18.304;2023-12-20T09:49:25;28.80;;;18.10;;
84175;SDS011;74306;40.114;18.304;2023-12-20T09:51:56;24.02;;;14.65;;
84175;SDS011;74306;40.114;18.304;2023-12-20T09:54:26;18.85;;;12.55;;
84175;SDS011;74306;40.114;18.304;2023-12-20T09:56:58;17.88;;;10.75;;
84175;SDS011;74306;40.114;18.304;2023-12-20T09:59:29;14.07;;;9.13;;
84175;SDS011;74306;40.114;18.304;2023-12-20T10:01:58;13.98;;;8.25;;
84175;SDS011;74306;40.114;18.304;2023-12-20T10:04:32;13.68;;;7.70;;
84175;SDS011;74306;40.114;18.304;2023-12-20T10:07:02;13.75;;;7.20;;
84175;SDS011;74306;40.114;18.304;2023-12-20T10:09:32;9.77;;;6.45;;
84175;SDS011;74306;40.114;18.304;2023-12-20T10:12:03;8.65;;;6.25;;
84175;SDS011;74306;40.114;18.304;2023-12-20T10:14:35;8.90;;;6.13;;
84175;SDS011;74306;40.114;18.304;2023-12-20T10:17:05;9.50;;;6.28;;
84175;SDS011;74306;40.114;18.304;2023-12-20T10:19:35;8.90;;;6.20;;
84175;SDS011;74306;40.114;18.304;2023-12-20T10:22:05;9.02;;;5.68;;
84175;SDS011;74306;40.114;18.304;2023-12-20T10:24:35;8.05;;;5.03;;
84175;SDS011;74306;40.114;18.304;2023-12-20T10:27:04;7.75;;;4.63;;
84175;SDS011;74306;40.114;18.304;2023-12-20T10:29:36;8.20;;;4.07;;
84175;SDS011;74306;40.114;18.304;2023-12-20T10:32:21;6.55;;;3.85;;
84175;SDS011;74306;40.114;18.304;2023-12-20T10:34:52;6.45;;;4.00;;
84175;SDS011;74306;40.114;18.304;2023-12-20T10:37:22;4.97;;;3.08;;
84175;SDS011;74306;40.114;18.304;2023-12-20T10:39:52;6.03;;;3.00;;
84175;SDS011;74306;40.114;18.304;2023-12-20T10:42:25;5.13;;;2.72;;
84175;SDS011;74306;40.114;18.304;2023-12-20T10:44:56;5.07;;;2.85;;
84175;SDS011;74306;40.114;18.304;2023-12-20T10:47:27;5.35;;;2.63;;
84175;SDS011;74306;40.114;18.304;2023-12-20T10:49:59;5.82;;;2.90;;
84175;SDS011;74306;40.114;18.304;2023-12-20T10:52:29;4.55;;;2.50;;
84175;SDS011;74306;40.114;18.304;2023-12-20T10:55:03;5.78;;;2.83;;
84175;SDS011;74306;40.114;18.304;2023-12-20T10:57:33;4.43;;;2.58;;
84175;SDS011;74306;40.114;18.304;2023-12-20T11:00:06;5.85;;;2.80;;
84175;SDS011;74306;40.114;18.304;2023-12-20T11:02:43;4.78;;;2.72;;
84175;SDS011;74306;40.114;18.304;2023-12-20T11:05:15;4.07;;;2.70;;
84175;SDS011;74306;40.114;18.304;2023-12-20T11:07:55;5.38;;;2.90;;
84175;SDS011;74306;40.114;18.304;2023-12-20T11:10:31;5.63;;;3.00;;
84175;SDS011;74306;40.114;18.304;2023-12-20T11:13:08;5.07;;;3.00;;
84175;SDS011;74306;40.114;18.304;2023-12-20T11:15:43;4.15;;;2.45;;
84175;SDS011;74306;40.114;18.304;2023-12-20T11:18:14;5.18;;;3.00;;
84175;SDS011;74306;40.114;18.304;2023-12-20T11:20:44;5.20;;;2.78;;
84175;SDS011;74306;40.114;18.304;2023-12-20T11:23:13;6.40;;;3.03;;
84175;SDS011;74306;40.114;18.304;2023-12-20T11:25:47;5.10;;;3.00;;
84175;SDS011;74306;40.114;18.304;2023-12-20T11:28:17;5.85;;;2.90;;
84175;SDS011;74306;40.114;18.304;2023-12-20T11:30:53;5.40;;;2.70;;
84175;SDS011;74306;40.114;18.304;2023-12-20T11:33:23;6.25;;;3.17;;
84175;SDS011;74306;40.114;18.304;2023-12-20T11:35:55;7.93;;;2.95;;
84175;SDS011;74306;40.114;18.304;2023-12-20T11:38:24;7.22;;;3.42;;
84175;SDS011;74306;40.114;18.304;2023-12-20T11:40:54;6.10;;;3.40;;
84175;SDS011;74306;40.114;18.304;2023-12-20T11:43:30;6.03;;;3.22;;
84175;SDS011;74306;40.114;18.304;2023-12-20T11:46:05;8.48;;;3.90;;
84175;SDS011;74306;40.114;18.304;2023-12-20T11:48:36;7.03;;;4.07;;
84175;SDS011;74306;40.114;18.304;2023-12-20T11:51:11;5.43;;;3.05;;
84175;SDS011;74306;40.114;18.304;2023-12-20T11:53:41;4.55;;;2.80;;
84175;SDS011;74306;40.114;18.304;2023-12-20T11:56:11;5.95;;;2.95;;
84175;SDS011;74306;40.114;18.304;2023-12-20T11:58:40;5.85;;;3.17;;
84175;SDS011;74306;40.114;18.304;2023-12-20T12:01:11;6.97;;;2.85;;
84175;SDS011;74306;40.114;18.304;2023-12-20T12:03:41;6.20;;;3.28;;
84175;SDS011;74306;40.114;18.304;2023-12-20T12:06:11;6.22;;;3.03;;
84175;SDS011;74306;40.114;18.304;2023-12-20T12:08:41;6.50;;;3.00;;
84175;SDS011;74306;40.114;18.304;2023-12-20T12:11:10;5.50;;;2.85;;
84175;SDS011;74306;40.114;18.304;2023-12-20T12:13:39;6.78;;;3.22;;
84175;SDS011;74306;40.114;18.304;2023-12-20T12:16:09;9.13;;;3.33;;
84175;SDS011;74306;40.114;18.304;2023-12-20T12:18:40;6.65;;;3.40;;
84175;SDS011;74306;40.114;18.304;2023-12-20T12:21:11;6.70;;;3.42;;
84175;SDS011;74306;40.114;18.304;2023-12-20T12:23:48;5.75;;;3.20;;
84175;SDS011;74306;40.114;18.304;2023-12-20T12:26:18;6.15;;;2.90;;
84175;SDS011;74306;40.114;18.304;2023-12-20T12:28:47;6.45;;;3.20;;
84175;SDS011;74306;40.114;18.304;2023-12-20T12:31:20;7.63;;;3.35;;
84175;SDS011;74306;40.114;18.304;2023-12-20T12:33:51;6.32;;;3.30;;
84175;SDS011;74306;40.114;18.304;2023-12-20T12:36:20;6.28;;;3.00;;
84175;SDS011;74306;40.114;18.304;2023-12-20T12:38:50;6.40;;;3.17;;
84175;SDS011;74306;40.114;18.304;2023-12-20T12:41:19;5.68;;;3.00;;
84175;SDS011;74306;40.114;18.304;2023-12-20T12:43:49;5.57;;;3.28;;
84175;SDS011;74306;40.114;18.304;2023-12-20T12:46:18;5.10;;;3.10;;
84175;SDS011;74306;40.114;18.304;2023-12-20T12:48:49;5.32;;;2.80;;
84175;SDS011;74306;40.114;18.304;2023-12-20T12:51:18;6.13;;;3.15;;
84175;SDS011;74306;40.114;18.304;2023-12-20T12:53:47;6.28;;;3.00;;
84175;SDS011;74306;40.114;18.304;2023-12-20T12:56:17;6.45;;;3.13;;
84175;SDS011;74306;40.114;18.304;2023-12-20T12:58:46;5.93;;;2.90;;
84175;SDS011;74306;40.114;18.304;2023-12-20T13:01:15;5.57;;;2.70;;
84175;SDS011;74306;40.114;18.304;2023-12-20T13:03:45;6.63;;;3.00;;
84175;SDS011;74306;40.114;18.304;2023-12-20T13:06:15;6.75;;;3.00;;
84175;SDS011;74306;40.114;18.304;2023-12-20T13:08:45;5.22;;;3.03;;
84175;SDS011;74306;40.114;18.304;2023-12-20T13:11:14;6.45;;;3.20;;
84175;SDS011;74306;40.114;18.304;2023-12-20T13:13:44;7.32;;;2.80;;
84175;SDS011;74306;40.114;18.304;2023-12-20T13:16:14;6.57;;;2.83;;
84175;SDS011;74306;40.114;18.304;2023-12-20T13:18:43;8.05;;;3.00;;
84175;SDS011;74306;40.114;18.304;2023-12-20T13:21:12;4.88;;;3.00;;
84175;SDS011;74306;40.114;18.304;2023-12-20T13:23:43;5.90;;;3.00;;
84175;SDS011;74306;40.114;18.304;2023-12-20T13:26:12;6.35;;;2.70;;
84175;SDS011;74306;40.114;18.304;2023-12-20T13:28:42;4.60;;;2.60;;
84175;SDS011;74306;40.114;18.304;2023-12-20T13:31:12;5.25;;;2.30;;
84175;SDS011;74306;40.114;18.304;2023-12-20T13:33:41;4.45;;;2.13;;
84175;SDS011;74306;40.114;18.304;2023-12-20T13:36:10;4.28;;;2.35;;
84175;SDS011;74306;40.114;18.304;2023-12-20T13:38:40;6.97;;;2.30;;
84175;SDS011;74306;40.114;18.304;2023-12-20T13:41:11;6.05;;;2.30;;
84175;SDS011;74306;40.114;18.304;2023-12-20T13:43:40;4.22;;;2.30;;
84175;SDS011;74306;40.114;18.304;2023-12-20T13:46:10;5.68;;;2.50;;
84175;SDS011;74306;40.114;18.304;2023-12-20T13:48:39;6.93;;;2.80;;
84175;SDS011;74306;40.114;18.304;2023-12-20T13:51:09;3.65;;;2.13;;
84175;SDS011;74306;40.114;18.304;2023-12-20T13:53:38;4.97;;;2.60;;
84175;SDS011;74306;40.114;18.304;2023-12-20T13:56:07;6.40;;;2.45;;
84175;SDS011;74306;40.114;18.304;2023-12-20T13:58:38;3.60;;;2.00;;
84175;SDS011;74306;40.114;18.304;2023-12-20T14:01:09;4.90;;;2.50;;
84175;SDS011;74306;40.114;18.304;2023-12-20T14:03:39;4.47;;;2.28;;
84175;SDS011;74306;40.114;18.304;2023-12-20T14:06:08;6.82;;;2.58;;
84175;SDS011;74306;40.114;18.304;2023-12-20T14:08:38;7.20;;;2.83;;
84175;SDS011;74306;40.114;18.304;2023-12-20T14:11:07;4.53;;;2.28;;
84175;SDS011;74306;40.114;18.304;2023-12-20T14:13:38;6.10;;;2.90;;
84175;SDS011;74306;40.114;18.304;2023-12-20T14:16:07;5.85;;;2.75;;
84175;SDS011;74306;40.114;18.304;2023-12-20T14:18:38;7.43;;;3.25;;
84175;SDS011;74306;40.114;18.304;2023-12-20T14:21:07;7.28;;;3.80;;
84175;SDS011;74306;40.114;18.304;2023-12-20T14:23:37;7.90;;;3.20;;
84175;SDS011;74306;40.114;18.304;2023-12-20T14:26:07;8.60;;;3.20;;
84175;SDS011;74306;40.114;18.304;2023-12-20T14:28:42;6.97;;;3.20;;
84175;SDS011;74306;40.114;18.304;2023-12-20T14:31:12;7.43;;;3.60;;
84175;SDS011;74306;40.114;18.304;2023-12-20T14:33:41;7.90;;;3.90;;